sensor_id;sensor_type;location;lat;lon;timestamp;temperature;humidity
33594;DHT22;19920;52.242;20.940;2024-03-17T00:00:22;7.00;99.90
33594;DHT22;19920;52.242;20.940;2024-03-17T00:02:48;7.00;99.90
33594;DHT22;19920;52.242;20.940;2024-03-17T00:05:14;7.00;99.90
33594;DHT22;19920;52.242;20.940;2024-03-17T00:07:39;7.00;99.90
33594;DHT22;19920;52.242;20.940;2024-03-17T00:10:05;7.10;99.90
33594;DHT22;19920;52.242;20.940;2024-03-17T00:12:32;7.00;99.90
33594;DHT22;19920;52.242;20.940;2024-03-17T00:14:58;7.00;99.90
33594;DHT22;19920;52.242;20.940;2024-03-17T00:17:23;7.00;99.90
33594;DHT22;19920;52.242;20.940;2024-03-17T00:19:49;6.90;99.90
33594;DHT22;19920;52.242;20.940;2024-03-17T00:22:14;6.90;99.90
33594;DHT22;19920;52.242;20.940;2024-03-17T00:24:40;6.90;99.90
33594;DHT22;19920;52.242;20.940;2024-03-17T00:27:08;6.90;99.90
33594;DHT22;19920;52.242;20.940;2024-03-17T00:29:33;6.90;99.90
33594;DHT22;19920;52.242;20.940;2024-03-17T00:31:58;6.80;99.90
33594;DHT22;19920;52.242;20.940;2024-03-17T00:34:24;6.80;99.90
33594;DHT22;19920;52.242;20.940;2024-03-17T00:36:49;6.70;99.90
33594;DHT22;19920;52.242;20.940;2024-03-17T00:39:16;6.70;99.90
33594;DHT22;19920;52.242;20.940;2024-03-17T00:41:43;6.70;99.90
33594;DHT22;19920;52.242;20.940;2024-03-17T00:44:09;6.70;99.90
33594;DHT22;19920;52.242;20.940;2024-03-17T00:46:34;6.70;99.90
33594;DHT22;19920;52.242;20.940;2024-03-17T00:48:59;6.60;99.90
33594;DHT22;19920;52.242;20.940;2024-03-17T00:51:25;6.60;99.90
33594;DHT22;19920;52.242;20.940;2024-03-17T00:53:51;6.50;99.90
33594;DHT22;19920;52.242;20.940;2024-03-17T00:56:16;6.60;99.90
33594;DHT22;19920;52.242;20.940;2024-03-17T00:58:42;6.60;99.90
33594;DHT22;19920;52.242;20.940;2024-03-17T01:01:08;6.50;99.90
33594;DHT22;19920;52.242;20.940;2024-03-17T01:03:33;6.40;99.90
33594;DHT22;19920;52.242;20.940;2024-03-17T01:05:58;6.50;99.90
33594;DHT22;19920;52.242;20.940;2024-03-17T01:08:24;6.50;99.90
33594;DHT22;19920;52.242;20.940;2024-03-17T01:10:50;6.40;99.90
33594;DHT22;19920;52.242;20.940;2024-03-17T01:13:16;6.30;99.90
33594;DHT22;19920;52.242;20.940;2024-03-17T01:15:42;6.20;99.90
33594;DHT22;19920;52.242;20.940;2024-03-17T01:18:07;6.10;99.90
33594;DHT22;19920;52.242;20.940;2024-03-17T01:20:36;6.10;99.90
33594;DHT22;19920;52.242;20.940;2024-03-17T01:23:02;6.00;99.90
33594;DHT22;19920;52.242;20.940;2024-03-17T01:25:28;5.90;99.90
33594;DHT22;19920;52.242;20.940;2024-03-17T01:27:55;5.80;99.90
33594;DHT22;19920;52.242;20.940;2024-03-17T01:30:20;5.80;99.90
33594;DHT22;19920;52.242;20.940;2024-03-17T01:32:46;5.70;99.90
33594;DHT22;19920;52.242;20.940;2024-03-17T01:35:11;5.70;99.90
33594;DHT22;19920;52.242;20.940;2024-03-17T01:37:40;5.60;99.90
33594;DHT22;19920;52.242;20.940;2024-03-17T01:40:06;5.60;99.90
33594;DHT22;19920;52.242;20.940;2024-03-17T01:42:34;5.60;99.90
33594;DHT22;19920;52.242;20.940;2024-03-17T01:45:00;5.50;99.90
33594;DHT22;19920;52.242;20.940;2024-03-17T01:47:26;5.50;99.90
33594;DHT22;19920;52.242;20.940;2024-03-17T01:49:51;5.50;99.90
33594;DHT22;19920;52.242;20.940;2024-03-17T01:52:17;5.40;99.90
33594;DHT22;19920;52.242;20.940;2024-03-17T01:54:44;5.40;99.90
33594;DHT22;19920;52.242;20.940;2024-03-17T01:57:11;5.30;99.90
33594;DHT22;19920;52.242;20.940;2024-03-17T01:59:36;5.40;99.90
33594;DHT22;19920;52.242;20.940;2024-03-17T02:02:02;5.40;99.90
33594;DHT22;19920;52.242;20.940;2024-03-17T02:04:27;5.40;99.90
33594;DHT22;19920;52.242;20.940;2024-03-17T02:06:53;5.40;99.90
33594;DHT22;19920;52.242;20.940;2024-03-17T02:09:18;5.40;99.90
33594;DHT22;19920;52.242;20.940;2024-03-17T02:11:44;5.40;99.90
33594;DHT22;19920;52.242;20.940;2024-03-17T02:14:10;5.50;99.90
33594;DHT22;19920;52.242;20.940;2024-03-17T02:16:36;5.40;99.90
33594;DHT22;19920;52.242;20.940;2024-03-17T02:19:01;5.30;99.90
33594;DHT22;19920;52.242;20.940;2024-03-17T02:21:27;5.40;99.90
33594;DHT22;19920;52.242;20.940;2024-03-17T02:23:53;5.40;99.90
33594;DHT22;19920;52.242;20.940;2024-03-17T02:26:19;5.40;99.90
33594;DHT22;19920;52.242;20.940;2024-03-17T02:28:45;5.40;99.90
33594;DHT22;19920;52.242;20.940;2024-03-17T02:31:11;5.40;99.90
33594;DHT22;19920;52.242;20.940;2024-03-17T02:33:37;5.50;99.90
33594;DHT22;19920;52.242;20.940;2024-03-17T02:36:04;5.50;99.90
33594;DHT22;19920;52.242;20.940;2024-03-17T02:38:30;5.50;99.90
33594;DHT22;19920;52.242;20.940;2024-03-17T02:41:15;5.40;99.90
33594;DHT22;19920;52.242;20.940;2024-03-17T02:43:40;5.30;99.90
33594;DHT22;19920;52.242;20.940;2024-03-17T02:46:06;5.20;99.90
33594;DHT22;19920;52.242;20.940;2024-03-17T02:48:33;5.20;99.90
33594;DHT22;19920;52.242;20.940;2024-03-17T02:50:58;5.10;99.90
33594;DHT22;19920;52.242;20.940;2024-03-17T02:53:24;5.10;99.90
33594;DHT22;19920;52.242;20.940;2024-03-17T02:55:49;5.00;99.90
33594;DHT22;19920;52.242;20.940;2024-03-17T02:58:15;4.90;99.90
33594;DHT22;19920;52.242;20.940;2024-03-17T03:00:41;5.00;99.90
33594;DHT22;19920;52.242;20.940;2024-03-17T03:03:06;5.00;99.90
33594;DHT22;19920;52.242;20.940;2024-03-17T03:05:32;5.00;99.90
33594;DHT22;19920;52.242;20.940;2024-03-17T03:07:57;5.00;99.90
33594;DHT22;19920;52.242;20.940;2024-03-17T03:10:23;5.00;99.90
33594;DHT22;19920;52.242;20.940;2024-03-17T03:12:49;5.00;99.90
33594;DHT22;19920;52.242;20.940;2024-03-17T03:15:14;5.00;99.90
33594;DHT22;19920;52.242;20.940;2024-03-17T03:17:40;5.00;99.90
33594;DHT22;19920;52.242;20.940;2024-03-17T03:20:05;5.00;99.90
33594;DHT22;19920;52.242;20.940;2024-03-17T03:22:33;5.10;99.90
33594;DHT22;19920;52.242;20.940;2024-03-17T03:24:59;5.10;99.90
33594;DHT22;19920;52.242;20.940;2024-03-17T03:27:24;5.10;99.90
33594;DHT22;19920;52.242;20.940;2024-03-17T03:29:50;5.20;99.90
33594;DHT22;19920;52.242;20.940;2024-03-17T03:32:15;5.20;99.90
33594;DHT22;19920;52.242;20.940;2024-03-17T03:34:42;5.20;99.90
33594;DHT22;19920;52.242;20.940;2024-03-17T03:37:08;5.30;99.90
33594;DHT22;19920;52.242;20.940;2024-03-17T03:39:35;5.20;99.90
33594;DHT22;19920;52.242;20.940;2024-03-17T03:42:01;5.20;99.90
33594;DHT22;19920;52.242;20.940;2024-03-17T03:44:27;5.10;99.90
33594;DHT22;19920;52.242;20.940;2024-03-17T03:46:53;5.00;99.90
33594;DHT22;19920;52.242;20.940;2024-03-17T03:49:23;4.90;99.90
33594;DHT22;19920;52.242;20.940;2024-03-17T03:51:49;4.90;99.90
33594;DHT22;19920;52.242;20.940;2024-03-17T03:54:14;4.90;99.90
33594;DHT22;19920;52.242;20.940;2024-03-17T03:56:40;4.80;99.90
33594;DHT22;19920;52.242;20.940;2024-03-17T03:59:05;4.90;99.90
33594;DHT22;19920;52.242;20.940;2024-03-17T04:01:31;4.90;99.90
33594;DHT22;19920;52.242;20.940;2024-03-17T04:03:56;5.00;99.90
33594;DHT22;19920;52.242;20.940;2024-03-17T04:06:22;5.00;99.90
33594;DHT22;19920;52.242;20.940;2024-03-17T04:08:48;5.00;99.90
33594;DHT22;19920;52.242;20.940;2024-03-17T04:11:13;5.00;99.90
33594;DHT22;19920;52.242;20.940;2024-03-17T04:13:39;5.00;99.90
33594;DHT22;19920;52.242;20.940;2024-03-17T04:16:05;5.00;99.90
33594;DHT22;19920;52.242;20.940;2024-03-17T04:18:31;5.00;99.90
33594;DHT22;19920;52.242;20.940;2024-03-17T04:21:03;5.00;99.90
33594;DHT22;19920;52.242;20.940;2024-03-17T04:23:29;5.00;99.90
33594;DHT22;19920;52.242;20.940;2024-03-17T04:25:57;5.00;99.90
33594;DHT22;19920;52.242;20.940;2024-03-17T04:28:23;5.00;99.90
33594;DHT22;19920;52.242;20.940;2024-03-17T04:30:49;5.00;99.90
33594;DHT22;19920;52.242;20.940;2024-03-17T04:33:14;5.00;99.90
33594;DHT22;19920;52.242;20.940;2024-03-17T04:35:42;5.00;99.90
33594;DHT22;19920;52.242;20.940;2024-03-17T04:38:07;4.90;99.90
33594;DHT22;19920;52.242;20.940;2024-03-17T04:40:33;5.00;99.90
33594;DHT22;19920;52.242;20.940;2024-03-17T04:42:58;5.00;99.90
33594;DHT22;19920;52.242;20.940;2024-03-17T04:45:24;5.00;99.90
33594;DHT22;19920;52.242;20.940;2024-03-17T04:47:49;5.00;99.90
33594;DHT22;19920;52.242;20.940;2024-03-17T04:50:15;4.90;99.90
33594;DHT22;19920;52.242;20.940;2024-03-17T04:52:40;4.90;99.90
33594;DHT22;19920;52.242;20.940;2024-03-17T04:55:06;4.90;99.90
33594;DHT22;19920;52.242;20.940;2024-03-17T04:57:32;5.00;99.90
33594;DHT22;19920;52.242;20.940;2024-03-17T04:59:57;5.00;99.90
33594;DHT22;19920;52.242;20.940;2024-03-17T05:02:23;5.00;99.90
33594;DHT22;19920;52.242;20.940;2024-03-17T05:04:49;5.00;99.90
33594;DHT22;19920;52.242;20.940;2024-03-17T05:07:14;5.10;99.90
33594;DHT22;19920;52.242;20.940;2024-03-17T05:09:40;5.10;99.90
33594;DHT22;19920;52.242;20.940;2024-03-17T05:12:05;5.10;99.90
33594;DHT22;19920;52.242;20.940;2024-03-17T05:14:31;5.10;99.90
33594;DHT22;19920;52.242;20.940;2024-03-17T05:16:56;5.10;99.90
33594;DHT22;19920;52.242;20.940;2024-03-17T05:19:22;5.00;99.90
33594;DHT22;19920;52.242;20.940;2024-03-17T05:21:48;5.00;99.90
33594;DHT22;19920;52.242;20.940;2024-03-17T05:24:14;5.10;99.90
33594;DHT22;19920;52.242;20.940;2024-03-17T05:26:39;5.10;99.90
33594;DHT22;19920;52.242;20.940;2024-03-17T05:29:07;5.20;99.90
33594;DHT22;19920;52.242;20.940;2024-03-17T05:31:33;5.00;99.90
33594;DHT22;19920;52.242;20.940;2024-03-17T05:33:58;5.00;99.90
33594;DHT22;19920;52.242;20.940;2024-03-17T05:36:24;5.10;99.90
33594;DHT22;19920;52.242;20.940;2024-03-17T05:38:49;5.20;99.90
33594;DHT22;19920;52.242;20.940;2024-03-17T05:41:15;5.20;99.90
33594;DHT22;19920;52.242;20.940;2024-03-17T05:43:40;5.10;99.90
33594;DHT22;19920;52.242;20.940;2024-03-17T05:46:06;5.10;99.90
33594;DHT22;19920;52.242;20.940;2024-03-17T05:48:36;5.00;99.90
33594;DHT22;19920;52.242;20.940;2024-03-17T05:51:08;4.90;99.90
33594;DHT22;19920;52.242;20.940;2024-03-17T05:53:34;5.10;99.90
33594;DHT22;19920;52.242;20.940;2024-03-17T05:56:00;5.20;99.90
33594;DHT22;19920;52.242;20.940;2024-03-17T05:58:26;5.30;99.90
33594;DHT22;19920;52.242;20.940;2024-03-17T06:00:52;5.30;99.90
33594;DHT22;19920;52.242;20.940;2024-03-17T06:03:17;5.30;99.90
33594;DHT22;19920;52.242;20.940;2024-03-17T06:05:43;5.50;99.90
33594;DHT22;19920;52.242;20.940;2024-03-17T06:08:11;5.40;99.90
33594;DHT22;19920;52.242;20.940;2024-03-17T06:10:37;5.40;99.90
33594;DHT22;19920;52.242;20.940;2024-03-17T06:13:03;5.30;99.90
33594;DHT22;19920;52.242;20.940;2024-03-17T06:15:28;5.30;99.90
33594;DHT22;19920;52.242;20.940;2024-03-17T06:17:54;5.40;99.90
33594;DHT22;19920;52.242;20.940;2024-03-17T06:20:23;5.40;99.90
33594;DHT22;19920;52.242;20.940;2024-03-17T06:22:55;5.50;99.90
33594;DHT22;19920;52.242;20.940;2024-03-17T06:25:20;5.60;99.90
33594;DHT22;19920;52.242;20.940;2024-03-17T06:27:52;5.60;99.90
33594;DHT22;19920;52.242;20.940;2024-03-17T06:30:17;5.70;99.90
33594;DHT22;19920;52.242;20.940;2024-03-17T06:32:43;5.60;99.90
33594;DHT22;19920;52.242;20.940;2024-03-17T06:35:12;5.60;99.90
33594;DHT22;19920;52.242;20.940;2024-03-17T06:37:41;5.60;99.90
33594;DHT22;19920;52.242;20.940;2024-03-17T06:40:06;5.60;99.90
33594;DHT22;19920;52.242;20.940;2024-03-17T06:42:32;5.70;99.90
33594;DHT22;19920;52.242;20.940;2024-03-17T06:44:57;5.70;99.90
33594;DHT22;19920;52.242;20.940;2024-03-17T06:47:23;5.80;99.90
33594;DHT22;19920;52.242;20.940;2024-03-17T06:49:49;5.90;99.90
33594;DHT22;19920;52.242;20.940;2024-03-17T06:52:14;6.10;99.90
33594;DHT22;19920;52.242;20.940;2024-03-17T06:54:40;6.10;99.90
33594;DHT22;19920;52.242;20.940;2024-03-17T06:57:05;6.00;99.90
33594;DHT22;19920;52.242;20.940;2024-03-17T06:59:34;6.20;99.90
33594;DHT22;19920;52.242;20.940;2024-03-17T07:02:00;6.10;99.90
33594;DHT22;19920;52.242;20.940;2024-03-17T07:04:25;6.10;99.90
33594;DHT22;19920;52.242;20.940;2024-03-17T07:06:50;6.20;99.90
33594;DHT22;19920;52.242;20.940;2024-03-17T07:09:16;6.20;99.90
33594;DHT22;19920;52.242;20.940;2024-03-17T07:11:42;6.20;99.90
33594;DHT22;19920;52.242;20.940;2024-03-17T07:14:09;6.30;99.90
33594;DHT22;19920;52.242;20.940;2024-03-17T07:16:35;6.20;99.90
33594;DHT22;19920;52.242;20.940;2024-03-17T07:19:01;6.30;99.90
33594;DHT22;19920;52.242;20.940;2024-03-17T07:21:26;6.30;99.90
33594;DHT22;19920;52.242;20.940;2024-03-17T07:23:52;6.00;99.90
33594;DHT22;19920;52.242;20.940;2024-03-17T07:26:17;6.10;99.90
33594;DHT22;19920;52.242;20.940;2024-03-17T07:28:43;6.10;99.90
33594;DHT22;19920;52.242;20.940;2024-03-17T07:31:10;6.10;99.90
33594;DHT22;19920;52.242;20.940;2024-03-17T07:33:35;6.20;99.90
33594;DHT22;19920;52.242;20.940;2024-03-17T07:36:01;6.30;99.90
33594;DHT22;19920;52.242;20.940;2024-03-17T07:38:27;6.10;99.90
33594;DHT22;19920;52.242;20.940;2024-03-17T07:40:58;6.10;99.90
33594;DHT22;19920;52.242;20.940;2024-03-17T07:43:24;6.30;99.90
33594;DHT22;19920;52.242;20.940;2024-03-17T07:45:56;6.10;99.90
33594;DHT22;19920;52.242;20.940;2024-03-17T07:48:22;6.20;99.90
33594;DHT22;19920;52.242;20.940;2024-03-17T07:50:59;6.30;99.90
33594;DHT22;19920;52.242;20.940;2024-03-17T07:53:26;6.30;99.90
33594;DHT22;19920;52.242;20.940;2024-03-17T07:58:30;6.40;99.90
33594;DHT22;19920;52.242;20.940;2024-03-17T08:01:01;6.30;99.90
33594;DHT22;19920;52.242;20.940;2024-03-17T08:03:27;6.40;99.90
33594;DHT22;19920;52.242;20.940;2024-03-17T08:05:53;6.30;99.90
33594;DHT22;19920;52.242;20.940;2024-03-17T08:08:19;6.40;99.90
33594;DHT22;19920;52.242;20.940;2024-03-17T08:10:44;6.30;99.90
33594;DHT22;19920;52.242;20.940;2024-03-17T08:13:10;6.50;99.90
33594;DHT22;19920;52.242;20.940;2024-03-17T08:15:36;6.60;99.90
33594;DHT22;19920;52.242;20.940;2024-03-17T08:18:02;6.70;99.90
33594;DHT22;19920;52.242;20.940;2024-03-17T08:20:29;6.90;99.90
33594;DHT22;19920;52.242;20.940;2024-03-17T08:22:55;6.70;99.90
33594;DHT22;19920;52.242;20.940;2024-03-17T08:25:20;6.80;99.90
33594;DHT22;19920;52.242;20.940;2024-03-17T08:27:45;6.80;99.90
33594;DHT22;19920;52.242;20.940;2024-03-17T08:30:12;6.70;99.90
33594;DHT22;19920;52.242;20.940;2024-03-17T08:32:38;6.50;99.90
33594;DHT22;19920;52.242;20.940;2024-03-17T08:35:04;6.60;99.90
33594;DHT22;19920;52.242;20.940;2024-03-17T08:37:31;6.60;99.90
33594;DHT22;19920;52.242;20.940;2024-03-17T08:39:56;6.50;99.90
33594;DHT22;19920;52.242;20.940;2024-03-17T08:42:22;6.50;99.90
33594;DHT22;19920;52.242;20.940;2024-03-17T08:44:47;6.60;99.90
33594;DHT22;19920;52.242;20.940;2024-03-17T08:47:13;6.70;99.90
33594;DHT22;19920;52.242;20.940;2024-03-17T08:49:38;6.50;99.90
33594;DHT22;19920;52.242;20.940;2024-03-17T08:52:04;6.70;99.90
33594;DHT22;19920;52.242;20.940;2024-03-17T08:54:29;6.80;99.90
33594;DHT22;19920;52.242;20.940;2024-03-17T08:56:55;6.70;99.90
33594;DHT22;19920;52.242;20.940;2024-03-17T08:59:20;6.80;99.90
33594;DHT22;19920;52.242;20.940;2024-03-17T09:01:46;6.70;99.90
33594;DHT22;19920;52.242;20.940;2024-03-17T09:04:11;6.50;99.90
33594;DHT22;19920;52.242;20.940;2024-03-17T09:06:37;6.60;99.90
33594;DHT22;19920;52.242;20.940;2024-03-17T09:09:02;6.50;99.90
33594;DHT22;19920;52.242;20.940;2024-03-17T09:11:28;6.50;99.90
33594;DHT22;19920;52.242;20.940;2024-03-17T09:13:54;6.40;99.90
33594;DHT22;19920;52.242;20.940;2024-03-17T09:16:19;6.30;99.90
33594;DHT22;19920;52.242;20.940;2024-03-17T09:18:47;6.20;99.90
33594;DHT22;19920;52.242;20.940;2024-03-17T09:21:14;5.80;99.90
33594;DHT22;19920;52.242;20.940;2024-03-17T09:23:41;5.50;99.90
33594;DHT22;19920;52.242;20.940;2024-03-17T09:26:07;5.10;99.90
33594;DHT22;19920;52.242;20.940;2024-03-17T09:28:34;4.90;99.90
33594;DHT22;19920;52.242;20.940;2024-03-17T09:31:00;5.10;99.90
33594;DHT22;19920;52.242;20.940;2024-03-17T09:33:26;5.10;99.90
33594;DHT22;19920;52.242;20.940;2024-03-17T09:35:52;5.20;99.90
33594;DHT22;19920;52.242;20.940;2024-03-17T09:38:18;5.50;99.90
33594;DHT22;19920;52.242;20.940;2024-03-17T09:40:46;5.70;99.90
33594;DHT22;19920;52.242;20.940;2024-03-17T09:43:13;5.70;99.90
33594;DHT22;19920;52.242;20.940;2024-03-17T09:45:38;5.70;99.90
33594;DHT22;19920;52.242;20.940;2024-03-17T09:48:03;5.90;99.90
33594;DHT22;19920;52.242;20.940;2024-03-17T09:50:29;6.10;99.90
33594;DHT22;19920;52.242;20.940;2024-03-17T09:52:56;6.30;99.90
33594;DHT22;19920;52.242;20.940;2024-03-17T09:55:21;6.40;99.90
33594;DHT22;19920;52.242;20.940;2024-03-17T09:57:47;6.60;99.90
33594;DHT22;19920;52.242;20.940;2024-03-17T10:00:13;6.60;99.90
33594;DHT22;19920;52.242;20.940;2024-03-17T10:02:45;6.80;99.90
33594;DHT22;19920;52.242;20.940;2024-03-17T10:05:22;6.70;99.90
33594;DHT22;19920;52.242;20.940;2024-03-17T10:07:48;6.80;99.90
33594;DHT22;19920;52.242;20.940;2024-03-17T10:10:17;6.70;99.90
33594;DHT22;19920;52.242;20.940;2024-03-17T10:12:43;6.80;99.90
33594;DHT22;19920;52.242;20.940;2024-03-17T10:15:11;6.50;99.90
33594;DHT22;19920;52.242;20.940;2024-03-17T10:17:38;6.20;99.90
33594;DHT22;19920;52.242;20.940;2024-03-17T10:20:13;6.30;99.90
33594;DHT22;19920;52.242;20.940;2024-03-17T10:22:53;6.20;99.90
33594;DHT22;19920;52.242;20.940;2024-03-17T10:25:23;6.30;99.90
33594;DHT22;19920;52.242;20.940;2024-03-17T10:27:48;6.40;99.90
33594;DHT22;19920;52.242;20.940;2024-03-17T10:30:17;6.40;99.90
33594;DHT22;19920;52.242;20.940;2024-03-17T10:32:44;6.40;99.90
33594;DHT22;19920;52.242;20.940;2024-03-17T10:35:25;6.30;99.90
33594;DHT22;19920;52.242;20.940;2024-03-17T10:37:54;6.30;99.90
33594;DHT22;19920;52.242;20.940;2024-03-17T10:40:20;6.30;99.90
33594;DHT22;19920;52.242;20.940;2024-03-17T10:42:45;6.20;99.90
33594;DHT22;19920;52.242;20.940;2024-03-17T10:45:13;6.20;99.90
33594;DHT22;19920;52.242;20.940;2024-03-17T10:47:39;6.20;99.90
33594;DHT22;19920;52.242;20.940;2024-03-17T10:50:06;6.30;99.90
33594;DHT22;19920;52.242;20.940;2024-03-17T10:52:34;6.50;99.90
33594;DHT22;19920;52.242;20.940;2024-03-17T10:55:07;6.50;99.90
33594;DHT22;19920;52.242;20.940;2024-03-17T11:00:07;6.70;99.90
33594;DHT22;19920;52.242;20.940;2024-03-17T11:02:37;6.60;99.90
33594;DHT22;19920;52.242;20.940;2024-03-17T11:05:09;6.50;99.90
33594;DHT22;19920;52.242;20.940;2024-03-17T11:07:39;6.50;99.90
33594;DHT22;19920;52.242;20.940;2024-03-17T11:10:12;6.50;99.90
33594;DHT22;19920;52.242;20.940;2024-03-17T11:12:44;6.50;99.90
33594;DHT22;19920;52.242;20.940;2024-03-17T11:17:44;6.60;99.90
33594;DHT22;19920;52.242;20.940;2024-03-17T11:20:13;6.50;99.90
33594;DHT22;19920;52.242;20.940;2024-03-17T11:22:43;6.60;99.90
33594;DHT22;19920;52.242;20.940;2024-03-17T11:27:55;6.60;99.90
33594;DHT22;19920;52.242;20.940;2024-03-17T11:33:46;6.70;99.90
33594;DHT22;19920;52.242;20.940;2024-03-17T11:35:50;6.60;99.90
33594;DHT22;19920;52.242;20.940;2024-03-17T11:38:50;6.50;99.90
33594;DHT22;19920;52.242;20.940;2024-03-17T11:43:52;6.10;99.90
33594;DHT22;19920;52.242;20.940;2024-03-17T11:46:37;5.90;99.90
33594;DHT22;19920;52.242;20.940;2024-03-17T11:49:03;5.90;99.90
33594;DHT22;19920;52.242;20.940;2024-03-17T11:51:29;6.00;99.90
33594;DHT22;19920;52.242;20.940;2024-03-17T11:53:57;6.10;99.90
33594;DHT22;19920;52.242;20.940;2024-03-17T11:56:23;5.90;99.90
33594;DHT22;19920;52.242;20.940;2024-03-17T11:59:03;5.90;99.90
33594;DHT22;19920;52.242;20.940;2024-03-17T12:01:29;5.80;99.90
33594;DHT22;19920;52.242;20.940;2024-03-17T12:03:54;5.80;99.90
33594;DHT22;19920;52.242;20.940;2024-03-17T12:06:21;5.90;99.90
33594;DHT22;19920;52.242;20.940;2024-03-17T12:08:47;6.00;99.90
33594;DHT22;19920;52.242;20.940;2024-03-17T12:11:16;6.00;99.90
33594;DHT22;19920;52.242;20.940;2024-03-17T12:13:42;6.10;99.90
33594;DHT22;19920;52.242;20.940;2024-03-17T12:16:11;6.10;99.90
33594;DHT22;19920;52.242;20.940;2024-03-17T12:18:37;6.10;99.90
33594;DHT22;19920;52.242;20.940;2024-03-17T12:21:12;6.20;99.90
33594;DHT22;19920;52.242;20.940;2024-03-17T12:23:39;6.30;99.90
33594;DHT22;19920;52.242;20.940;2024-03-17T12:26:05;6.40;99.90
33594;DHT22;19920;52.242;20.940;2024-03-17T12:28:30;6.60;99.90
33594;DHT22;19920;52.242;20.940;2024-03-17T12:30:56;6.60;99.90
33594;DHT22;19920;52.242;20.940;2024-03-17T12:33:24;6.60;99.90
33594;DHT22;19920;52.242;20.940;2024-03-17T12:35:50;6.70;99.90
33594;DHT22;19920;52.242;20.940;2024-03-17T12:38:21;6.60;99.90
33594;DHT22;19920;52.242;20.940;2024-03-17T12:40:47;6.40;99.90
33594;DHT22;19920;52.242;20.940;2024-03-17T12:43:12;6.30;99.90
33594;DHT22;19920;52.242;20.940;2024-03-17T12:45:38;6.30;99.90
33594;DHT22;19920;52.242;20.940;2024-03-17T12:48:03;6.50;99.90
33594;DHT22;19920;52.242;20.940;2024-03-17T12:50:29;6.60;99.90
33594;DHT22;19920;52.242;20.940;2024-03-17T12:52:55;6.70;99.90
33594;DHT22;19920;52.242;20.940;2024-03-17T12:55:20;6.80;99.90
33594;DHT22;19920;52.242;20.940;2024-03-17T12:58:05;6.70;99.90
33594;DHT22;19920;52.242;20.940;2024-03-17T13:01:00;6.70;99.90
33594;DHT22;19920;52.242;20.940;2024-03-17T13:03:26;6.80;99.90
33594;DHT22;19920;52.242;20.940;2024-03-17T13:05:52;7.10;99.90
33594;DHT22;19920;52.242;20.940;2024-03-17T13:08:18;7.30;99.90
33594;DHT22;19920;52.242;20.940;2024-03-17T13:10:43;7.50;99.90
33594;DHT22;19920;52.242;20.940;2024-03-17T13:13:09;7.70;99.90
33594;DHT22;19920;52.242;20.940;2024-03-17T13:15:36;7.60;99.90
33594;DHT22;19920;52.242;20.940;2024-03-17T13:18:02;7.30;99.90
33594;DHT22;19920;52.242;20.940;2024-03-17T13:20:29;6.90;99.90
33594;DHT22;19920;52.242;20.940;2024-03-17T13:22:54;6.70;99.90
33594;DHT22;19920;52.242;20.940;2024-03-17T13:25:23;6.60;99.90
33594;DHT22;19920;52.242;20.940;2024-03-17T13:27:51;6.50;99.90
33594;DHT22;19920;52.242;20.940;2024-03-17T13:30:18;6.50;99.90
33594;DHT22;19920;52.242;20.940;2024-03-17T13:32:44;6.30;99.90
33594;DHT22;19920;52.242;20.940;2024-03-17T13:35:19;6.20;99.90
33594;DHT22;19920;52.242;20.940;2024-03-17T13:37:45;6.00;99.90
33594;DHT22;19920;52.242;20.940;2024-03-17T13:40:11;5.90;99.90
33594;DHT22;19920;52.242;20.940;2024-03-17T13:42:40;5.70;99.90
33594;DHT22;19920;52.242;20.940;2024-03-17T13:45:07;5.60;99.90
33594;DHT22;19920;52.242;20.940;2024-03-17T13:47:35;5.60;99.90
33594;DHT22;19920;52.242;20.940;2024-03-17T13:50:00;5.50;99.90
33594;DHT22;19920;52.242;20.940;2024-03-17T13:52:26;5.50;99.90
33594;DHT22;19920;52.242;20.940;2024-03-17T13:54:51;5.50;99.90
33594;DHT22;19920;52.242;20.940;2024-03-17T13:57:16;5.50;99.90
33594;DHT22;19920;52.242;20.940;2024-03-17T13:59:42;5.50;99.90
33594;DHT22;19920;52.242;20.940;2024-03-17T14:02:11;5.40;99.90
33594;DHT22;19920;52.242;20.940;2024-03-17T14:04:37;5.20;99.90
33594;DHT22;19920;52.242;20.940;2024-03-17T14:07:03;5.00;99.90
33594;DHT22;19920;52.242;20.940;2024-03-17T14:09:29;4.90;99.90
33594;DHT22;19920;52.242;20.940;2024-03-17T14:11:55;4.50;99.90
33594;DHT22;19920;52.242;20.940;2024-03-17T14:14:22;4.40;99.90
33594;DHT22;19920;52.242;20.940;2024-03-17T14:16:48;4.20;99.90
33594;DHT22;19920;52.242;20.940;2024-03-17T14:19:13;4.00;99.90
33594;DHT22;19920;52.242;20.940;2024-03-17T14:21:39;4.00;99.90
33594;DHT22;19920;52.242;20.940;2024-03-17T14:24:04;4.00;99.90
33594;DHT22;19920;52.242;20.940;2024-03-17T14:26:33;3.90;99.90
33594;DHT22;19920;52.242;20.940;2024-03-17T14:28:58;4.00;99.90
33594;DHT22;19920;52.242;20.940;2024-03-17T14:31:25;4.00;99.90
33594;DHT22;19920;52.242;20.940;2024-03-17T14:33:50;4.10;99.90
33594;DHT22;19920;52.242;20.940;2024-03-17T14:36:16;4.10;99.90
33594;DHT22;19920;52.242;20.940;2024-03-17T14:38:43;4.10;99.90
33594;DHT22;19920;52.242;20.940;2024-03-17T14:41:08;4.10;99.90
33594;DHT22;19920;52.242;20.940;2024-03-17T14:43:34;4.10;99.90
33594;DHT22;19920;52.242;20.940;2024-03-17T14:46:04;3.90;99.90
33594;DHT22;19920;52.242;20.940;2024-03-17T14:48:29;3.80;99.90
33594;DHT22;19920;52.242;20.940;2024-03-17T14:50:54;3.80;99.90
33594;DHT22;19920;52.242;20.940;2024-03-17T14:53:20;3.80;99.90
33594;DHT22;19920;52.242;20.940;2024-03-17T14:55:45;3.90;99.90
33594;DHT22;19920;52.242;20.940;2024-03-17T14:58:11;3.80;99.90
33594;DHT22;19920;52.242;20.940;2024-03-17T15:00:37;3.80;99.90
33594;DHT22;19920;52.242;20.940;2024-03-17T15:03:03;3.80;99.90
33594;DHT22;19920;52.242;20.940;2024-03-17T15:05:31;3.70;99.90
33594;DHT22;19920;52.242;20.940;2024-03-17T15:07:56;3.80;99.90
33594;DHT22;19920;52.242;20.940;2024-03-17T15:10:23;3.80;99.90
33594;DHT22;19920;52.242;20.940;2024-03-17T15:12:48;3.70;99.90
33594;DHT22;19920;52.242;20.940;2024-03-17T15:15:14;3.70;99.90
33594;DHT22;19920;52.242;20.940;2024-03-17T15:17:39;3.80;99.90
33594;DHT22;19920;52.242;20.940;2024-03-17T15:20:07;3.80;99.90
33594;DHT22;19920;52.242;20.940;2024-03-17T15:22:43;3.70;99.90
33594;DHT22;19920;52.242;20.940;2024-03-17T15:25:09;3.50;99.90
33594;DHT22;19920;52.242;20.940;2024-03-17T15:27:34;3.50;99.90
33594;DHT22;19920;52.242;20.940;2024-03-17T15:30:00;3.40;99.90
33594;DHT22;19920;52.242;20.940;2024-03-17T15:32:25;3.40;99.90
33594;DHT22;19920;52.242;20.940;2024-03-17T15:34:51;3.40;99.90
33594;DHT22;19920;52.242;20.940;2024-03-17T15:37:17;3.20;99.90
33594;DHT22;19920;52.242;20.940;2024-03-17T15:39:43;3.20;99.90
33594;DHT22;19920;52.242;20.940;2024-03-17T15:42:08;3.10;99.90